Terminal Aerodrome Forecast
Issued by NWS

Home | Current Version | Previous Version | Graphics & Text | Print | Product List | Glossary On
Versions: 1 2 3 4 5 6 7 8 9 10 11 12 13 14 15 16 17 18 19 20 21
000
FTUS43 KPAH 222216 AAB
TAFOWB
TAF AMD
KOWB 222216Z 2222/2318 03010G18KT P6SM SCT020 BKN250
     FM230000 01011KT P6SM SCT030 OVC060
     FM230500 35015G23KT P6SM VCSH BKN025=

USA.gov is the U.S. government's official web portal to all federal, state and local government web resources and services.